Time;durP1;ratioP1;P1;durP2;ratioP2;P2;SDS_P1;SDS_P2;PMS_P1;PMS_P2;Temp;Humidity;BMP_temperature;BMP_pressure;BME280_temperature;BME280_humidity;BME280_pressure;Samples;Min_cycle;Max_cycle;Signal;HPM_P1;HPM_P2
2024/01/14 00:01:58;;;;;;;2.73;1.83;;;1.20;99.90;;;;;;7389465;19;20146;-77
2024/01/14 00:04:24;;;;;;;2.27;1.97;;;1.10;99.90;;;;;;7389598;19;20153;-76
2024/01/14 00:06:50;;;;;;;4.30;3.07;;;1.10;99.90;;;;;;7388486;19;20146;-76
2024/01/14 00:09:16;;;;;;;1.83;1.63;;;1.10;99.90;;;;;;7392013;19;20150;-77
2024/01/14 00:11:42;;;;;;;4.13;3.00;;;1.20;99.90;;;;;;7388721;19;20126;-77
2024/01/14 00:14:08;;;;;;;2.43;2.30;;;1.10;99.90;;;;;;7389144;19;20631;-77
2024/01/14 00:16:35;;;;;;;3.10;2.67;;;1.20;99.90;;;;;;7391334;19;20142;-76
2024/01/14 00:19:02;;;;;;;2.77;1.67;;;1.20;99.90;;;;;;7387889;19;20648;-77
2024/01/14 00:21:27;;;;;;;3.00;2.07;;;0.90;99.90;;;;;;7391253;19;20143;-76
2024/01/14 00:23:53;;;;;;;3.03;2.50;;;1.10;99.90;;;;;;7387178;19;20498;-77
2024/01/14 00:26:20;;;;;;;4.23;2.70;;;1.20;99.90;;;;;;7390220;19;20142;-76
2024/01/14 00:28:46;;;;;;;2.47;1.37;;;1.20;99.90;;;;;;7390332;19;20142;-76
2024/01/14 00:31:12;;;;;;;2.00;1.90;;;1.20;99.90;;;;;;7388215;19;20135;-76
2024/01/14 00:33:40;;;;;;;2.93;2.40;;;1.20;99.90;;;;;;7389222;19;20576;-76
2024/01/14 00:36:07;;;;;;;2.57;1.80;;;1.20;99.90;;;;;;7388088;19;20131;-76
2024/01/14 00:38:32;;;;;;;2.70;2.50;;;1.20;99.90;;;;;;7391973;19;20138;-76
2024/01/14 00:40:59;;;;;;;2.53;2.27;;;1.20;99.90;;;;;;7396127;19;20153;-78
2024/01/14 00:43:24;;;;;;;4.43;3.33;;;1.20;99.90;;;;;;7397961;19;20442;-77
2024/01/14 00:45:50;;;;;;;1.97;1.80;;;1.20;99.90;;;;;;7396913;19;20135;-75
2024/01/14 00:48:16;;;;;;;1.33;1.20;;;1.10;99.90;;;;;;7394584;19;20148;-77
2024/01/14 00:50:41;;;;;;;3.67;2.57;;;1.20;99.90;;;;;;7393117;19;20204;-77
2024/01/14 00:53:07;;;;;;;2.27;2.10;;;1.20;99.90;;;;;;7398847;19;20250;-76
2024/01/14 00:55:33;;;;;;;1.73;1.63;;;1.20;99.90;;;;;;7397201;19;20439;-75
2024/01/14 00:57:58;;;;;;;2.20;1.87;;;1.20;99.90;;;;;;7395325;19;20599;-77
2024/01/14 01:00:24;;;;;;;3.07;2.77;;;1.10;99.90;;;;;;7394549;19;20134;-76
2024/01/14 01:02:50;;;;;;;4.33;2.93;;;1.00;99.90;;;;;;7395171;19;20469;-77
2024/01/14 01:05:16;;;;;;;3.00;2.00;;;0.80;99.90;;;;;;7394924;19;20151;-76
2024/01/14 01:07:42;;;;;;;2.37;1.63;;;1.00;99.90;;;;;;7395101;19;20243;-77
2024/01/14 01:10:09;;;;;;;6.60;2.83;;;1.20;99.90;;;;;;7393710;19;20691;-76
2024/01/14 01:12:34;;;;;;;4.07;2.73;;;1.20;99.90;;;;;;7394877;19;20524;-76
2024/01/14 01:15:00;;;;;;;3.83;2.70;;;1.30;99.90;;;;;;7394416;19;20135;-76
2024/01/14 01:17:26;;;;;;;2.47;2.27;;;1.20;99.90;;;;;;7395304;19;20142;-77
2024/01/14 01:19:52;;;;;;;2.73;2.53;;;1.30;99.90;;;;;;7394753;19;20179;-76
2024/01/14 01:22:18;;;;;;;1.27;1.17;;;1.20;99.90;;;;;;7394376;19;20213;-78
2024/01/14 01:24:44;;;;;;;3.97;3.03;;;1.20;99.90;;;;;;7395632;19;20210;-76
2024/01/14 01:27:11;;;;;;;2.30;2.10;;;0.90;99.90;;;;;;7394723;19;20761;-76
2024/01/14 01:29:37;;;;;;;2.17;1.97;;;0.90;99.90;;;;;;7393789;19;20490;-76
2024/01/14 01:32:03;;;;;;;3.33;2.60;;;0.90;99.90;;;;;;7393744;19;20227;-77
2024/01/14 01:34:29;;;;;;;2.67;2.23;;;1.00;99.90;;;;;;7392715;19;20242;-76
2024/01/14 01:36:54;;;;;;;3.43;3.07;;;1.10;99.90;;;;;;7394563;19;20138;-76
2024/01/14 01:39:20;;;;;;;4.23;2.20;;;1.10;99.90;;;;;;7392209;19;20135;-76
2024/01/14 01:41:46;;;;;;;2.20;2.00;;;1.10;99.90;;;;;;7394136;19;20153;-76
2024/01/14 01:44:11;;;;;;;2.67;2.07;;;1.20;99.90;;;;;;7392773;19;20131;-77
2024/01/14 01:46:37;;;;;;;2.67;2.13;;;1.10;99.90;;;;;;7395697;19;20202;-77
2024/01/14 01:49:04;;;;;;;1.90;1.80;;;1.10;99.90;;;;;;7391294;19;20254;-77
2024/01/14 01:51:30;;;;;;;2.00;1.90;;;1.20;99.90;;;;;;7395398;19;20137;-77
2024/01/14 01:53:57;;;;;;;3.27;2.10;;;1.20;99.90;;;;;;7391763;19;20135;-77
2024/01/14 01:56:25;;;;;;;3.87;1.23;;;1.10;99.90;;;;;;7394037;19;20210;-76
2024/01/14 01:58:52;;;;;;;1.73;1.57;;;1.10;99.90;;;;;;7392181;19;20131;-76
2024/01/14 02:01:18;;;;;;;2.43;2.23;;;1.00;99.90;;;;;;7394691;19;20133;-77
2024/01/14 02:03:44;;;;;;;3.37;1.77;;;1.00;99.90;;;;;;7391146;19;20158;-76
2024/01/14 02:06:10;;;;;;;5.03;3.10;;;1.20;99.90;;;;;;7391151;19;20150;-76
2024/01/14 02:08:37;;;;;;;2.77;2.33;;;1.20;99.90;;;;;;7393580;19;20139;-77
2024/01/14 02:11:02;;;;;;;3.67;2.97;;;1.20;99.90;;;;;;7394844;19;20583;-76
2024/01/14 02:13:28;;;;;;;3.70;3.10;;;1.30;99.90;;;;;;7393672;19;20343;-77
2024/01/14 02:15:54;;;;;;;3.90;3.53;;;1.30;99.90;;;;;;7393387;19;20564;-76
2024/01/14 02:18:20;;;;;;;2.93;2.10;;;1.30;99.90;;;;;;7391298;19;20175;-77
2024/01/14 02:20:46;;;;;;;2.63;1.97;;;1.40;99.90;;;;;;7392465;19;20138;-77
2024/01/14 02:23:16;;;;;;;3.03;2.83;;;1.40;99.90;;;;;;7391410;19;20151;-76
2024/01/14 02:25:42;;;;;;;3.23;2.93;;;1.30;99.90;;;;;;7388957;19;20141;-76
2024/01/14 02:28:08;;;;;;;3.50;2.43;;;1.20;99.90;;;;;;7392061;19;20428;-77
2024/01/14 02:30:35;;;;;;;3.77;2.53;;;1.20;99.90;;;;;;7393288;19;20194;-77
2024/01/14 02:33:01;;;;;;;3.43;2.30;;;0.80;99.90;;;;;;7391681;19;20154;-76
2024/01/14 02:35:27;;;;;;;5.53;3.73;;;1.10;99.90;;;;;;7391341;19;20134;-77
2024/01/14 02:37:54;;;;;;;8.10;2.40;;;1.20;99.90;;;;;;7391215;19;20130;-77
2024/01/14 02:40:20;;;;;;;2.73;2.53;;;1.30;99.90;;;;;;7390217;19;20135;-78
2024/01/14 02:42:46;;;;;;;2.90;2.57;;;1.30;99.90;;;;;;7391698;19;20585;-78
2024/01/14 02:45:12;;;;;;;3.40;2.60;;;1.30;99.90;;;;;;7393732;19;20134;-78
2024/01/14 02:47:37;;;;;;;2.57;2.20;;;1.30;99.90;;;;;;7392903;19;20470;-78
2024/01/14 02:50:04;;;;;;;3.27;2.67;;;1.30;99.90;;;;;;7390103;19;20166;-78
2024/01/14 02:52:29;;;;;;;1.30;1.20;;;1.30;99.90;;;;;;7393033;19;20135;-77
2024/01/14 02:54:55;;;;;;;2.70;2.50;;;1.00;99.90;;;;;;7392334;19;20202;-76
2024/01/14 02:57:21;;;;;;;2.30;2.07;;;1.10;99.90;;;;;;7391702;19;20137;-77
2024/01/14 02:59:50;;;;;;;3.30;3.03;;;1.20;99.90;;;;;;7388501;19;20151;-76
2024/01/14 03:02:16;;;;;;;4.83;2.43;;;1.10;99.90;;;;;;7388319;19;20131;-77
2024/01/14 03:04:43;;;;;;;4.57;3.10;;;1.10;99.90;;;;;;7390312;19;20620;-78
2024/01/14 03:07:08;;;;;;;2.70;1.83;;;1.10;99.90;;;;;;7391083;19;20207;-76
2024/01/14 03:09:34;;;;;;;3.57;2.43;;;1.10;99.90;;;;;;7390517;19;20215;-77
2024/01/14 03:12:00;;;;;;;1.30;1.20;;;1.10;99.90;;;;;;7389974;19;20131;-77
2024/01/14 03:14:26;;;;;;;2.37;2.17;;;1.20;99.90;;;;;;7389523;19;20147;-75
2024/01/14 03:16:51;;;;;;;4.13;3.73;;;1.10;99.90;;;;;;7390275;19;20222;-77
2024/01/14 03:19:17;;;;;;;2.67;2.20;;;1.10;99.90;;;;;;7390253;19;20175;-75
2024/01/14 03:21:43;;;;;;;4.73;3.10;;;1.10;99.90;;;;;;7392033;19;20544;-77
2024/01/14 03:24:08;;;;;;;3.00;2.80;;;1.00;99.90;;;;;;7389769;19;20145;-77
2024/01/14 03:26:34;;;;;;;3.03;1.60;;;1.00;99.90;;;;;;7389322;19;20146;-77
2024/01/14 03:29:00;;;;;;;2.07;1.83;;;1.00;99.90;;;;;;7390477;19;20225;-77
2024/01/14 03:31:25;;;;;;;3.17;2.50;;;1.10;99.90;;;;;;7389914;19;20157;-76
2024/01/14 03:33:51;;;;;;;3.07;2.53;;;1.00;99.90;;;;;;7392061;19;20142;-76
2024/01/14 03:36:17;;;;;;;7.90;3.23;;;1.00;99.90;;;;;;7390942;19;20138;-76
2024/01/14 03:38:43;;;;;;;3.47;3.17;;;1.00;99.90;;;;;;7388673;19;20757;-76
2024/01/14 03:41:09;;;;;;;8.07;3.33;;;0.90;99.90;;;;;;7391210;19;20198;-76
2024/01/14 03:43:34;;;;;;;1.60;1.33;;;0.90;99.90;;;;;;7387815;19;20146;-78
2024/01/14 03:46:00;;;;;;;5.93;2.57;;;0.90;99.90;;;;;;7391852;19;20663;-77
2024/01/14 03:48:26;;;;;;;1.40;1.40;;;0.80;99.90;;;;;;7390636;19;20246;-76
2024/01/14 03:50:52;;;;;;;1.67;1.57;;;0.80;99.90;;;;;;7385820;19;20196;-75
2024/01/14 03:53:18;;;;;;;2.93;2.27;;;0.80;99.90;;;;;;7391267;19;20142;-76
2024/01/14 03:55:47;;;;;;;2.93;2.63;;;0.80;99.90;;;;;;7388099;19;20149;-76
2024/01/14 03:58:13;;;;;;;5.13;4.03;;;0.80;99.90;;;;;;7389971;19;20135;-77
2024/01/14 04:00:39;;;;;;;3.47;3.00;;;0.80;99.90;;;;;;7385075;19;20585;-77
2024/01/14 04:03:04;;;;;;;4.50;2.77;;;0.70;99.90;;;;;;7390523;19;20210;-77
2024/01/14 04:05:30;;;;;;;2.03;1.87;;;0.80;99.90;;;;;;7387879;19;20643;-77
2024/01/14 04:07:56;;;;;;;2.53;2.33;;;0.80;99.90;;;;;;7389507;19;20134;-76
2024/01/14 04:10:21;;;;;;;3.10;1.20;;;0.80;99.90;;;;;;7388850;19;20567;-76
2024/01/14 04:12:48;;;;;;;3.43;3.10;;;0.80;99.90;;;;;;7392555;19;20252;-77
2024/01/14 04:15:14;;;;;;;7.20;3.57;;;0.80;99.90;;;;;;7393143;19;20146;-77
2024/01/14 04:17:39;;;;;;;2.13;1.83;;;0.90;99.90;;;;;;7396676;19;20477;-77
2024/01/14 04:20:06;;;;;;;3.50;3.17;;;0.80;99.90;;;;;;7396156;19;20150;-77
2024/01/14 04:22:31;;;;;;;4.30;2.50;;;0.70;99.90;;;;;;7395753;19;20143;-76
2024/01/14 04:24:57;;;;;;;3.97;3.67;;;0.60;99.90;;;;;;7398556;19;20149;-76
2024/01/14 04:27:23;;;;;;;2.03;1.53;;;0.50;99.90;;;;;;7395914;19;20163;-76
2024/01/14 04:29:49;;;;;;;2.80;2.43;;;0.50;99.90;;;;;;7395501;19;20146;-77
2024/01/14 04:32:14;;;;;;;6.00;2.40;;;0.60;99.90;;;;;;7395770;19;20154;-77
2024/01/14 04:34:40;;;;;;;3.13;2.60;;;0.60;99.90;;;;;;7396346;19;20580;-77
2024/01/14 04:37:06;;;;;;;3.33;2.53;;;0.60;99.90;;;;;;7394986;19;20142;-76
2024/01/14 04:39:31;;;;;;;4.03;2.03;;;0.60;99.90;;;;;;7396138;19;20142;-76
2024/01/14 04:41:57;;;;;;;3.00;2.57;;;0.60;99.90;;;;;;7395902;19;20131;-76
2024/01/14 04:44:23;;;;;;;2.10;1.33;;;0.60;99.90;;;;;;7395570;19;20147;-76
2024/01/14 04:46:50;;;;;;;3.53;2.50;;;0.50;99.90;;;;;;7395903;19;20139;-77
2024/01/14 04:49:15;;;;;;;2.90;2.70;;;0.50;99.90;;;;;;7395319;19;20169;-76
2024/01/14 04:51:41;;;;;;;0.97;0.97;;;0.50;99.90;;;;;;7394250;19;20202;-77
2024/01/14 04:54:08;;;;;;;2.97;2.10;;;0.50;99.90;;;;;;7397295;19;20166;-77
2024/01/14 04:56:34;;;;;;;2.60;1.70;;;0.50;99.90;;;;;;7394554;19;20160;-78
2024/01/14 04:58:59;;;;;;;6.73;3.67;;;0.60;99.90;;;;;;7395576;19;20143;-77
2024/01/14 05:01:25;;;;;;;3.67;2.83;;;0.60;99.90;;;;;;7395757;19;20158;-79
2024/01/14 05:03:51;;;;;;;2.90;2.67;;;0.50;99.90;;;;;;7396633;19;20150;-77
2024/01/14 05:06:16;;;;;;;3.90;2.13;;;0.60;99.90;;;;;;7393250;19;20142;-78
2024/01/14 05:08:42;;;;;;;2.40;2.20;;;0.60;99.90;;;;;;7397761;19;20135;-76
2024/01/14 05:11:09;;;;;;;1.97;1.87;;;0.60;99.90;;;;;;7395627;19;20135;-77
2024/01/14 05:13:35;;;;;;;3.43;2.73;;;0.70;99.90;;;;;;7393773;19;20146;-77
2024/01/14 05:16:01;;;;;;;5.33;2.97;;;0.60;99.90;;;;;;7394769;19;20471;-77
2024/01/14 05:18:27;;;;;;;2.40;2.23;;;0.50;99.90;;;;;;7394260;19;20126;-77
2024/01/14 05:20:52;;;;;;;1.73;1.60;;;0.50;99.90;;;;;;7396367;19;20144;-77
2024/01/14 05:23:19;;;;;;;1.90;1.77;;;0.40;99.90;;;;;;7394879;19;20146;-77
2024/01/14 05:25:45;;;;;;;3.60;3.17;;;0.40;99.90;;;;;;7392351;19;20159;-76
2024/01/14 05:28:10;;;;;;;2.00;1.90;;;0.30;99.90;;;;;;7394923;19;20142;-77
2024/01/14 05:30:36;;;;;;;4.17;2.57;;;0.20;99.90;;;;;;7392985;19;20148;-78
2024/01/14 05:33:02;;;;;;;4.07;2.33;;;0.30;99.90;;;;;;7396175;19;20134;-78
2024/01/14 05:35:28;;;;;;;4.93;2.67;;;0.30;99.90;;;;;;7390019;19;20138;-76
2024/01/14 05:37:54;;;;;;;2.17;1.70;;;0.40;99.90;;;;;;7394111;19;20189;-76
2024/01/14 05:40:19;;;;;;;3.17;2.23;;;0.40;99.90;;;;;;7393434;19;20138;-77
2024/01/14 05:42:45;;;;;;;3.17;2.30;;;0.40;99.90;;;;;;7393504;19;20495;-76
2024/01/14 05:45:12;;;;;;;4.30;2.37;;;0.50;99.90;;;;;;7391751;19;20156;-76
2024/01/14 05:47:38;;;;;;;1.40;1.30;;;0.50;99.90;;;;;;7394166;19;20139;-77
2024/01/14 05:50:06;;;;;;;3.20;1.90;;;0.60;99.90;;;;;;7392345;19;20154;-77
2024/01/14 05:52:31;;;;;;;1.87;1.67;;;0.60;99.90;;;;;;7393667;19;20123;-77
2024/01/14 05:54:57;;;;;;;2.20;2.03;;;0.60;99.90;;;;;;7391513;19;20149;-76
2024/01/14 05:57:23;;;;;;;3.00;2.43;;;0.60;99.90;;;;;;7395404;19;20131;-77
2024/01/14 05:59:49;;;;;;;2.67;2.47;;;0.50;99.90;;;;;;7391685;19;20141;-76
2024/01/14 06:02:15;;;;;;;1.37;1.27;;;0.50;99.90;;;;;;7394904;19;20138;-76
2024/01/14 06:04:41;;;;;;;3.17;2.70;;;0.50;99.90;;;;;;7390434;19;20178;-78
2024/01/14 06:07:07;;;;;;;3.13;2.83;;;0.50;99.90;;;;;;7396217;19;20146;-80
2024/01/14 06:09:32;;;;;;;2.47;1.90;;;0.50;99.90;;;;;;7395522;19;20154;-78
2024/01/14 06:11:58;;;;;;;2.47;2.37;;;0.50;99.90;;;;;;7396406;19;20176;-81
2024/01/14 06:14:24;;;;;;;5.10;2.27;;;0.50;99.90;;;;;;7391737;19;20592;-81
2024/01/14 06:16:49;;;;;;;2.17;2.00;;;0.50;99.90;;;;;;7395644;19;20153;-81
2024/01/14 06:19:15;;;;;;;2.10;1.73;;;0.50;99.90;;;;;;7393099;19;20139;-80
2024/01/14 06:21:42;;;;;;;3.27;2.20;;;0.50;99.90;;;;;;7393471;19;20230;-78
2024/01/14 06:24:09;;;;;;;2.67;1.23;;;0.50;99.90;;;;;;7394759;19;20162;-80
2024/01/14 06:26:35;;;;;;;2.07;1.97;;;0.50;99.90;;;;;;7393238;19;20143;-81
2024/01/14 06:29:01;;;;;;;2.93;2.03;;;0.50;99.90;;;;;;7391425;19;20878;-80
2024/01/14 06:31:26;;;;;;;3.87;2.63;;;0.30;99.90;;;;;;7394252;19;20158;-80
2024/01/14 06:33:52;;;;;;;2.60;2.40;;;0.40;99.90;;;;;;7391773;19;20159;-80
2024/01/14 06:36:19;;;;;;;1.97;1.83;;;0.50;99.90;;;;;;7394736;19;20130;-78
2024/01/14 06:38:45;;;;;;;3.10;2.37;;;0.50;99.90;;;;;;7390550;19;20730;-79
2024/01/14 06:41:18;;;;;;;3.00;2.73;;;0.50;99.90;;;;;;7395199;19;20202;-80
2024/01/14 06:43:44;;;;;;;3.10;1.90;;;0.40;99.90;;;;;;7391969;19;20155;-79
2024/01/14 06:46:10;;;;;;;2.30;1.63;;;0.40;99.90;;;;;;7395000;19;20226;-79
2024/01/14 06:48:36;;;;;;;3.40;3.07;;;0.40;99.90;;;;;;7389998;19;20130;-80
2024/01/14 06:51:02;;;;;;;2.60;2.40;;;0.20;99.90;;;;;;7391470;19;20134;-80
2024/01/14 06:53:28;;;;;;;2.37;2.07;;;0.30;99.90;;;;;;7392624;19;20911;-80
2024/01/14 06:55:54;;;;;;;2.80;1.83;;;0.20;99.90;;;;;;7394394;19;20146;-80
2024/01/14 06:58:20;;;;;;;1.20;1.20;;;0.30;99.90;;;;;;7392645;19;20205;-79
2024/01/14 07:00:45;;;;;;;2.70;2.50;;;0.30;99.90;;;;;;7393026;19;20692;-80
2024/01/14 07:03:11;;;;;;;4.57;2.70;;;0.30;99.90;;;;;;7390417;19;20202;-80
2024/01/14 07:05:37;;;;;;;2.03;1.93;;;0.30;99.90;;;;;;7391676;19;20464;-80
2024/01/14 07:08:04;;;;;;;4.87;1.57;;;0.20;99.90;;;;;;7391053;19;20134;-78
2024/01/14 07:10:31;;;;;;;5.10;2.67;;;0.20;99.90;;;;;;7392996;19;20243;-79
2024/01/14 07:12:58;;;;;;;4.40;3.13;;;0.20;99.90;;;;;;7391833;19;20135;-79
2024/01/14 07:15:24;;;;;;;3.20;2.90;;;0.20;99.90;;;;;;7390027;19;20146;-79
2024/01/14 07:17:50;;;;;;;2.30;2.10;;;0.20;99.90;;;;;;7390010;19;20157;-79
2024/01/14 07:20:16;;;;;;;3.10;1.67;;;-0.10;99.90;;;;;;7389747;19;20138;-78
2024/01/14 07:22:42;;;;;;;2.47;2.27;;;0.00;99.90;;;;;;7389934;19;20142;-77
2024/01/14 07:25:10;;;;;;;5.70;2.30;;;0.20;99.90;;;;;;7390777;19;20154;-79
2024/01/14 07:27:36;;;;;;;4.03;2.97;;;0.20;99.90;;;;;;7388631;19;20143;-78
2024/01/14 07:30:05;;;;;;;3.73;3.43;;;0.30;99.90;;;;;;7389427;19;20714;-80
2024/01/14 07:32:31;;;;;;;3.27;2.53;;;0.30;99.90;;;;;;7390021;19;20138;-80
2024/01/14 07:34:57;;;;;;;5.23;2.43;;;0.40;99.90;;;;;;7387502;19;20550;-80
2024/01/14 07:37:23;;;;;;;2.90;2.50;;;0.40;99.90;;;;;;7388555;19;20134;-79
2024/01/14 07:39:51;;;;;;;4.73;2.90;;;0.40;99.90;;;;;;7388861;19;20594;-79
2024/01/14 07:42:17;;;;;;;1.73;1.63;;;0.50;99.90;;;;;;7391453;19;20490;-80
2024/01/14 07:44:43;;;;;;;2.47;2.27;;;0.50;99.90;;;;;;7389212;19;20206;-80
2024/01/14 07:47:09;;;;;;;3.17;2.80;;;0.60;99.90;;;;;;7390719;19;20134;-80
2024/01/14 07:49:35;;;;;;;3.13;2.83;;;0.60;99.90;;;;;;7389587;19;20147;-79
2024/01/14 07:52:02;;;;;;;3.73;2.63;;;0.60;99.90;;;;;;7387689;19;20147;-80
2024/01/14 07:54:27;;;;;;;4.70;2.47;;;0.60;99.90;;;;;;7389361;19;20143;-80
2024/01/14 07:56:54;;;;;;;2.40;2.20;;;0.50;99.90;;;;;;7387192;19;20158;-78
2024/01/14 07:59:20;;;;;;;2.33;1.67;;;0.40;99.90;;;;;;7387124;19;20160;-76
2024/01/14 08:01:46;;;;;;;0.97;0.97;;;0.50;99.90;;;;;;7387561;19;20148;-77
2024/01/14 08:04:12;;;;;;;3.00;2.80;;;0.50;99.90;;;;;;7390259;19;20162;-77
2024/01/14 08:06:38;;;;;;;4.23;2.23;;;0.50;99.90;;;;;;7388394;19;20230;-78
2024/01/14 08:09:03;;;;;;;3.10;1.93;;;0.50;99.90;;;;;;7387404;19;20149;-81
2024/01/14 08:11:29;;;;;;;2.67;2.43;;;0.50;99.90;;;;;;7389356;19;20214;-79
2024/01/14 08:13:55;;;;;;;3.70;3.17;;;0.50;99.90;;;;;;7389145;19;20138;-79
2024/01/14 08:16:21;;;;;;;2.77;2.53;;;0.60;99.90;;;;;;7388810;19;20317;-78
2024/01/14 08:18:47;;;;;;;4.50;2.77;;;0.60;99.90;;;;;;7391046;19;20160;-79
2024/01/14 08:21:12;;;;;;;3.67;1.83;;;0.70;99.90;;;;;;7389980;19;20139;-77
2024/01/14 08:23:38;;;;;;;3.10;2.77;;;0.70;99.90;;;;;;7389444;19;20161;-80
2024/01/14 08:26:05;;;;;;;1.80;1.60;;;0.70;99.90;;;;;;7388513;19;20589;-79
2024/01/14 08:28:32;;;;;;;3.47;2.13;;;0.70;99.90;;;;;;7387607;19;20501;-78
2024/01/14 08:30:58;;;;;;;3.07;2.43;;;0.80;99.90;;;;;;7391472;19;20218;-85
2024/01/14 08:33:26;;;;;;;1.80;1.70;;;0.90;99.90;;;;;;7387500;19;20138;-79
2024/01/14 08:35:54;;;;;;;1.97;1.77;;;0.80;99.90;;;;;;7389581;19;20135;-75
2024/01/14 08:38:20;;;;;;;2.57;1.73;;;0.70;99.90;;;;;;7390722;19;20135;-76
2024/01/14 08:40:46;;;;;;;3.17;2.70;;;0.70;99.90;;;;;;7387735;19;20169;-74
2024/01/14 08:43:12;;;;;;;3.73;3.20;;;0.70;99.90;;;;;;7390586;19;20161;-76
2024/01/14 08:45:40;;;;;;;3.60;1.97;;;0.60;99.90;;;;;;7387802;19;20143;-76
2024/01/14 08:48:06;;;;;;;3.77;2.30;;;0.50;99.90;;;;;;7390627;19;20658;-79
2024/01/14 08:50:32;;;;;;;2.23;2.07;;;0.60;99.90;;;;;;7389161;19;20155;-80
2024/01/14 08:53:01;;;;;;;2.10;1.70;;;0.80;99.90;;;;;;7390647;19;20134;-79
2024/01/14 08:55:28;;;;;;;2.27;2.10;;;0.80;99.90;;;;;;7385023;19;20168;-78
2024/01/14 08:57:54;;;;;;;3.70;1.70;;;1.00;99.90;;;;;;7390417;19;20226;-80
2024/01/14 09:00:26;;;;;;;2.60;2.17;;;1.00;99.90;;;;;;7393866;19;20139;-81
2024/01/14 09:02:52;;;;;;;2.73;2.33;;;1.00;99.90;;;;;;7398794;19;20568;-79
2024/01/14 09:05:20;;;;;;;1.00;1.00;;;1.00;99.90;;;;;;7394279;19;20185;-78
2024/01/14 09:07:48;;;;;;;3.80;2.90;;;0.80;99.90;;;;;;7394271;19;20142;-77
2024/01/14 09:10:14;;;;;;;2.90;2.47;;;0.80;99.90;;;;;;7397596;19;20139;-82
2024/01/14 09:12:43;;;;;;;1.63;1.53;;;0.70;99.90;;;;;;7396611;19;20198;-80
2024/01/14 09:15:08;;;;;;;1.87;1.30;;;0.80;99.90;;;;;;7396344;19;20156;-80
2024/01/14 09:17:34;;;;;;;7.03;2.93;;;0.80;99.90;;;;;;7395242;19;20667;-78
2024/01/14 09:20:00;;;;;;;2.83;2.63;;;0.90;99.90;;;;;;7399284;19;20511;-77
2024/01/14 09:22:26;;;;;;;5.23;3.07;;;0.90;99.90;;;;;;7393787;19;20154;-77
2024/01/14 09:24:53;;;;;;;6.47;2.23;;;0.90;99.90;;;;;;7395674;19;20138;-78
2024/01/14 09:27:19;;;;;;;3.27;2.97;;;1.00;99.90;;;;;;7396150;19;20594;-78
2024/01/14 09:29:44;;;;;;;4.13;2.63;;;1.00;99.90;;;;;;7395044;19;20149;-77
2024/01/14 09:32:10;;;;;;;3.63;2.97;;;0.90;99.90;;;;;;7393594;19;20520;-78
2024/01/14 09:34:36;;;;;;;7.63;3.80;;;1.00;99.90;;;;;;7393000;19;20583;-78
2024/01/14 09:37:02;;;;;;;3.50;2.33;;;1.10;99.90;;;;;;7394073;19;20210;-77
2024/01/14 09:39:27;;;;;;;3.30;1.57;;;1.00;99.90;;;;;;7393480;19;20138;-79
2024/01/14 09:42:17;;;;;;;3.53;3.20;;;1.00;99.90;;;;;;7392764;19;20157;-76
2024/01/14 09:44:45;;;;;;;2.50;2.30;;;0.90;99.90;;;;;;7396894;19;20139;-76
2024/01/14 09:47:14;;;;;;;2.07;1.70;;;1.00;99.90;;;;;;7396381;19;20147;-78
2024/01/14 09:49:41;;;;;;;2.80;2.60;;;1.10;99.90;;;;;;7392712;19;20913;-78
2024/01/14 09:52:09;;;;;;;1.83;1.73;;;1.00;99.90;;;;;;7392950;19;20134;-77
2024/01/14 09:54:35;;;;;;;2.17;1.50;;;1.00;99.90;;;;;;7394319;19;20143;-78
2024/01/14 09:57:11;;;;;;;3.03;2.83;;;1.00;99.90;;;;;;7395603;19;20142;-76
2024/01/14 09:59:38;;;;;;;5.03;1.70;;;1.00;99.90;;;;;;7393554;19;20168;-75
2024/01/14 10:02:05;;;;;;;5.00;3.40;;;1.00;99.90;;;;;;7394738;19;20153;-77
2024/01/14 10:04:31;;;;;;;3.23;2.13;;;1.00;99.90;;;;;;7394513;19;20155;-76
2024/01/14 10:06:57;;;;;;;3.90;2.63;;;1.00;99.90;;;;;;7397130;19;20155;-78
2024/01/14 10:09:24;;;;;;;2.70;2.23;;;1.10;99.90;;;;;;7395294;19;20150;-75
2024/01/14 10:11:50;;;;;;;2.97;1.93;;;1.20;99.90;;;;;;7392955;19;20138;-76
2024/01/14 10:14:16;;;;;;;2.57;2.37;;;1.20;99.90;;;;;;7391695;19;20134;-76
2024/01/14 10:16:42;;;;;;;3.43;3.13;;;1.30;99.90;;;;;;7392959;19;20151;-76
2024/01/14 10:19:07;;;;;;;2.73;1.80;;;1.30;99.90;;;;;;7394141;19;20320;-77
2024/01/14 10:21:33;;;;;;;4.80;2.73;;;1.20;99.90;;;;;;7392259;19;20608;-76
2024/01/14 10:24:03;;;;;;;2.23;2.00;;;1.20;99.90;;;;;;7392658;19;20150;-75
2024/01/14 10:26:29;;;;;;;2.87;2.47;;;1.20;99.90;;;;;;7394039;19;20533;-75
2024/01/14 10:29:02;;;;;;;4.77;2.37;;;1.20;99.90;;;;;;7391937;19;20143;-76
2024/01/14 10:31:30;;;;;;;1.80;1.70;;;1.30;99.90;;;;;;7393453;19;20131;-78
2024/01/14 10:33:59;;;;;;;2.47;2.27;;;1.30;99.90;;;;;;7393079;19;20122;-77
2024/01/14 10:36:28;;;;;;;1.57;1.47;;;1.40;99.90;;;;;;7392226;19;20126;-79
2024/01/14 10:38:59;;;;;;;2.40;2.20;;;1.40;99.90;;;;;;7394429;19;20602;-79
2024/01/14 10:41:25;;;;;;;2.37;2.20;;;1.40;99.90;;;;;;7392282;19;20146;-77
2024/01/14 10:43:51;;;;;;;1.90;1.17;;;1.40;99.90;;;;;;7392960;19;20171;-78
2024/01/14 10:46:18;;;;;;;2.87;2.60;;;1.50;99.90;;;;;;7390711;19;20134;-76
2024/01/14 10:48:49;;;;;;;4.37;3.43;;;1.60;99.90;;;;;;7391911;19;20135;-75
2024/01/14 10:51:17;;;;;;;3.10;2.43;;;1.70;99.90;;;;;;7391367;19;20144;-76
2024/01/14 10:54:23;;;;;;;3.90;2.87;;;1.80;99.90;;;;;;7392306;19;20138;-75
2024/01/14 10:57:18;;;;;;;3.40;3.10;;;1.90;99.90;;;;;;7391682;19;20145;-76
2024/01/14 10:59:44;;;;;;;1.27;1.03;;;2.00;99.90;;;;;;7391098;19;20170;-77
2024/01/14 11:02:17;;;;;;;3.73;1.97;;;2.20;99.90;;;;;;7391646;19;20134;-76
2024/01/14 11:04:47;;;;;;;5.43;2.33;;;2.20;99.90;;;;;;7389433;19;20188;-76
2024/01/14 11:07:13;;;;;;;1.40;1.30;;;2.30;99.90;;;;;;7390567;19;20137;-75
2024/01/14 11:09:42;;;;;;;5.70;3.47;;;2.50;99.90;;;;;;7392974;19;20271;-76
2024/01/14 11:12:38;;;;;;;2.60;2.43;;;2.50;99.90;;;;;;7389820;19;20154;-77
2024/01/14 11:15:19;;;;;;;2.63;2.43;;;2.50;99.90;;;;;;7387828;19;20878;-75
2024/01/14 11:18:12;;;;;;;3.23;2.77;;;2.60;99.90;;;;;;7392435;19;20572;-76
2024/01/14 11:20:42;;;;;;;5.00;2.77;;;2.60;99.90;;;;;;7391409;19;20150;-75
2024/01/14 11:23:08;;;;;;;4.60;2.93;;;2.60;99.90;;;;;;7389852;19;20135;-75
2024/01/14 11:25:36;;;;;;;2.40;2.20;;;2.70;99.90;;;;;;7390961;19;20153;-74
2024/01/14 11:28:04;;;;;;;3.67;2.30;;;2.70;99.90;;;;;;7389799;19;20766;-75
2024/01/14 11:30:53;;;;;;;2.23;2.03;;;2.60;99.90;;;;;;7390730;19;20146;-76
2024/01/14 11:33:40;;;;;;;4.30;3.37;;;2.60;99.90;;;;;;7391302;19;20164;-75
2024/01/14 11:36:07;;;;;;;2.53;2.30;;;2.70;99.90;;;;;;7390173;19;20627;-76
2024/01/14 11:38:49;;;;;;;5.30;4.43;;;2.80;99.90;;;;;;7390235;19;20538;-75
2024/01/14 11:41:28;;;;;;;3.07;2.23;;;2.90;99.90;;;;;;7390592;19;20218;-75
2024/01/14 11:44:01;;;;;;;2.13;1.90;;;2.90;99.90;;;;;;7389251;19;20515;-76
2024/01/14 11:46:36;;;;;;;1.77;1.67;;;3.00;99.90;;;;;;7390555;19;20202;-76
2024/01/14 11:49:06;;;;;;;5.20;2.60;;;3.00;99.90;;;;;;7389319;19;20165;-77
2024/01/14 11:51:32;;;;;;;2.03;1.83;;;3.00;99.90;;;;;;7389268;19;20138;-76
2024/01/14 11:54:00;;;;;;;3.67;2.30;;;2.90;99.90;;;;;;7389619;19;20131;-77
2024/01/14 11:56:30;;;;;;;3.97;2.63;;;3.20;99.90;;;;;;7389086;19;20221;-77
2024/01/14 11:58:59;;;;;;;1.63;1.53;;;3.20;99.90;;;;;;7388460;19;20802;-75
2024/01/14 12:01:30;;;;;;;3.17;1.87;;;3.30;99.90;;;;;;7388435;19;20146;-76
2024/01/14 12:04:01;;;;;;;5.93;3.43;;;3.30;99.90;;;;;;7389730;19;20154;-76
2024/01/14 12:06:26;;;;;;;2.70;2.50;;;3.40;99.90;;;;;;7391078;19;20158;-77
2024/01/14 12:09:00;;;;;;;3.63;2.30;;;3.60;99.90;;;;;;7391351;19;20139;-77
2024/01/14 12:11:26;;;;;;;3.57;2.77;;;3.60;99.90;;;;;;7388366;19;20138;-77
2024/01/14 12:13:52;;;;;;;2.23;2.13;;;3.60;99.90;;;;;;7388450;19;20160;-76
2024/01/14 12:16:18;;;;;;;4.33;2.50;;;3.60;99.90;;;;;;7387604;19;20134;-77
2024/01/14 12:18:44;;;;;;;4.20;2.20;;;3.60;99.90;;;;;;7388840;19;20150;-77
2024/01/14 12:21:11;;;;;;;3.80;3.37;;;3.60;99.90;;;;;;7388239;19;20197;-76
2024/01/14 12:23:37;;;;;;;3.53;2.50;;;3.50;99.90;;;;;;7389578;19;20218;-76
2024/01/14 12:26:06;;;;;;;4.40;2.47;;;2.90;99.90;;;;;;7388166;19;20754;-77
2024/01/14 12:28:32;;;;;;;2.67;1.80;;;3.40;99.90;;;;;;7389230;19;20503;-77
2024/01/14 12:30:58;;;;;;;6.20;2.40;;;3.60;99.90;;;;;;7387053;19;20145;-76
2024/01/14 12:33:24;;;;;;;2.53;1.97;;;3.80;99.90;;;;;;7389652;19;20139;-77
2024/01/14 12:35:49;;;;;;;3.33;2.43;;;3.90;99.90;;;;;;7395517;19;20603;-86
2024/01/14 12:38:15;;;;;;;3.73;3.10;;;3.90;99.90;;;;;;7397538;19;20146;-87
2024/01/14 12:40:41;;;;;;;3.57;2.50;;;4.00;99.90;;;;;;7397316;19;20218;-78
2024/01/14 12:43:07;;;;;;;2.90;2.53;;;4.00;99.90;;;;;;7399179;19;20127;-77
2024/01/14 12:45:34;;;;;;;4.70;3.63;;;4.00;99.90;;;;;;7396588;19;20138;-77
2024/01/14 12:48:01;;;;;;;3.30;2.97;;;4.10;99.90;;;;;;7399380;19;20625;-77
2024/01/14 12:50:29;;;;;;;5.73;3.27;;;4.20;99.90;;;;;;7396509;19;20214;-77
2024/01/14 12:53:00;;;;;;;5.50;2.93;;;4.20;99.90;;;;;;7396143;19;20201;-77
2024/01/14 12:55:29;;;;;;;3.57;2.50;;;4.20;99.90;;;;;;7394791;19;20127;-78
2024/01/14 12:57:57;;;;;;;3.83;2.60;;;4.20;99.90;;;;;;7396166;19;20143;-78